WAT2476 KSLC-KENV
Flight info
| Callsign | WAT2476 |
|---|---|
| Flight time | 0h 39m |
| Altitude | 8500 |
| Route | DCT |
| Aircraft | C208/L-SDFGR/C |
Departure
| Time | 2026-04-23 01:22 |
|---|---|
| Airport | Salt Lake City International Airport (KSLC) |
Arrival
| Time | 2026-04-23 02:02 |
|---|---|
| Airport | Wendover Airport (KENV) |
| Time | Latitude | Longitude | Altitude | Speed | Heading |
|---|---|---|---|---|---|
| 2026-04-23 00:53 | 40.77552 | -111.95870 | 4230 ft | 0 kts | 181° |
| 2026-04-23 01:15 | 40.77548 | -111.95871 | 4230 ft | 4 kts | 188° |
| 2026-04-23 01:15 | 40.77521 | -111.95905 | 4230 ft | 10 kts | 258° |
| 2026-04-23 01:15 | 40.77525 | -111.95971 | 4230 ft | 1 kts | 270° |
| 2026-04-23 01:16 | 40.77525 | -111.95973 | 4230 ft | 0 kts | 270° |
| 2026-04-23 01:18 | 40.77524 | -111.96006 | 4230 ft | 11 kts | 270° |
| 2026-04-23 01:18 | 40.77497 | -111.96069 | 4230 ft | 9 kts | 180° |
| 2026-04-23 01:19 | 40.77426 | -111.96066 | 4230 ft | 12 kts | 177° |
| 2026-04-23 01:19 | 40.77333 | -111.96063 | 4230 ft | 13 kts | 180° |
| 2026-04-23 01:19 | 40.77280 | -111.96074 | 4230 ft | 2 kts | 225° |
| 2026-04-23 01:19 | 40.77273 | -111.96091 | 4230 ft | 1 kts | 261° |
| 2026-04-23 01:20 | 40.77273 | -111.96092 | 4230 ft | 0 kts | 264° |
| 2026-04-23 01:21 | 40.77273 | -111.96097 | 4230 ft | 6 kts | 266° |
| 2026-04-23 01:21 | 40.77295 | -111.96203 | 4230 ft | 11 kts | 328° |
| 2026-04-23 01:21 | 40.77429 | -111.96210 | 4232 ft | 48 kts | 0° |
| 2026-04-23 01:21 | 40.77959 | -111.96208 | 4233 ft | 99 kts | 0° |
| 2026-04-23 01:22 | 40.78704 | -111.96210 | 4399 ft | 111 kts | 358° |
| 2026-04-23 01:22 | 40.79489 | -111.96225 | 4614 ft | 114 kts | 358° |
| 2026-04-23 01:22 | 40.80278 | -111.96225 | 4841 ft | 114 kts | 5° |
| 2026-04-23 01:22 | 40.80876 | -111.95550 | 5017 ft | 127 kts | 66° |
| 2026-04-23 01:23 | 40.80902 | -111.94360 | 5237 ft | 130 kts | 84° |
| 2026-04-23 01:23 | 40.80796 | -111.93180 | 5428 ft | 136 kts | 110° |
| 2026-04-23 01:23 | 40.80005 | -111.92438 | 5538 ft | 156 kts | 170° |
| 2026-04-23 01:23 | 40.78889 | -111.92359 | 5681 ft | 164 kts | 176° |
| 2026-04-23 01:24 | 40.77756 | -111.92283 | 5846 ft | 166 kts | 188° |
| 2026-04-23 01:24 | 40.76791 | -111.92985 | 6017 ft | 157 kts | 240° |
| 2026-04-23 01:24 | 40.76511 | -111.94280 | 6236 ft | 143 kts | 268° |
| 2026-04-23 01:24 | 40.76426 | -111.95571 | 6460 ft | 139 kts | 268° |
| 2026-04-23 01:25 | 40.76420 | -111.96874 | 6501 ft | 146 kts | 274° |
| 2026-04-23 01:25 | 40.76488 | -111.98234 | 6509 ft | 150 kts | 274° |
| 2026-04-23 01:25 | 40.76560 | -111.99626 | 6508 ft | 154 kts | 274° |
| 2026-04-23 01:25 | 40.76630 | -112.01036 | 6507 ft | 155 kts | 274° |
| 2026-04-23 01:26 | 40.76698 | -112.02460 | 6508 ft | 155 kts | 276° |
| 2026-04-23 01:26 | 40.76983 | -112.03827 | 6506 ft | 155 kts | 281° |
| 2026-04-23 01:26 | 40.77091 | -112.05248 | 6507 ft | 156 kts | 275° |
| 2026-04-23 01:26 | 40.77164 | -112.06684 | 6510 ft | 157 kts | 274° |
| 2026-04-23 01:27 | 40.77212 | -112.08129 | 6507 ft | 157 kts | 272° |
| 2026-04-23 01:27 | 40.77236 | -112.09574 | 6508 ft | 157 kts | 273° |
| 2026-04-23 01:27 | 40.77268 | -112.11019 | 6508 ft | 158 kts | 273° |
| 2026-04-23 01:27 | 40.77302 | -112.12470 | 6508 ft | 158 kts | 273° |
| 2026-04-23 01:28 | 40.77334 | -112.13928 | 6509 ft | 159 kts | 272° |
| 2026-04-23 01:28 | 40.77374 | -112.15382 | 6506 ft | 159 kts | 274° |
| 2026-04-23 01:28 | 40.77182 | -112.16785 | 6493 ft | 161 kts | 249° |
| 2026-04-23 01:28 | 40.76593 | -112.18044 | 6490 ft | 164 kts | 234° |
| 2026-04-23 01:29 | 40.75777 | -112.19105 | 6492 ft | 165 kts | 229° |
| 2026-04-23 01:29 | 40.74942 | -112.20150 | 6493 ft | 165 kts | 228° |
| 2026-04-23 01:29 | 40.74147 | -112.21233 | 6493 ft | 164 kts | 234° |
| 2026-04-23 01:29 | 40.73451 | -112.22406 | 6494 ft | 162 kts | 237° |
| 2026-04-23 01:30 | 40.72763 | -112.23591 | 6494 ft | 163 kts | 237° |
| 2026-04-23 01:30 | 40.72087 | -112.24767 | 6622 ft | 156 kts | 237° |
| 2026-04-23 01:30 | 40.71438 | -112.25876 | 6832 ft | 149 kts | 237° |
| 2026-04-23 01:30 | 40.70890 | -112.26994 | 7024 ft | 142 kts | 249° |
| 2026-04-23 01:31 | 40.70606 | -112.28223 | 7219 ft | 139 kts | 261° |
| 2026-04-23 01:31 | 40.70482 | -112.29477 | 7416 ft | 137 kts | 267° |
| 2026-04-23 01:31 | 40.70394 | -112.30725 | 7613 ft | 136 kts | 267° |
| 2026-04-23 01:31 | 40.70366 | -112.31961 | 7812 ft | 134 kts | 274° |
| 2026-04-23 01:32 | 40.70412 | -112.33185 | 8010 ft | 133 kts | 274° |
| 2026-04-23 01:32 | 40.70457 | -112.34407 | 8209 ft | 133 kts | 274° |
| 2026-04-23 01:32 | 40.70503 | -112.35613 | 8406 ft | 134 kts | 274° |
| 2026-04-23 01:32 | 40.70552 | -112.36879 | 8497 ft | 141 kts | 274° |
| 2026-04-23 01:33 | 40.70609 | -112.38190 | 8507 ft | 148 kts | 275° |
| 2026-04-23 01:33 | 40.70825 | -112.39532 | 8511 ft | 152 kts | 285° |
| 2026-04-23 01:33 | 40.71087 | -112.40896 | 8510 ft | 154 kts | 283° |
| 2026-04-23 01:33 | 40.71314 | -112.42288 | 8509 ft | 156 kts | 282° |
| 2026-04-23 01:34 | 40.71539 | -112.43694 | 8509 ft | 157 kts | 282° |
| 2026-04-23 01:34 | 40.71760 | -112.45102 | 8510 ft | 157 kts | 282° |
| 2026-04-23 01:34 | 40.71982 | -112.46510 | 8509 ft | 157 kts | 282° |
| 2026-04-23 01:34 | 40.72203 | -112.47922 | 8509 ft | 157 kts | 282° |
| 2026-04-23 01:35 | 40.72425 | -112.49332 | 8509 ft | 157 kts | 282° |
| 2026-04-23 01:35 | 40.72645 | -112.50744 | 8509 ft | 157 kts | 282° |
| 2026-04-23 01:35 | 40.72868 | -112.52159 | 8508 ft | 157 kts | 282° |
| 2026-04-23 01:35 | 40.73087 | -112.53569 | 8511 ft | 157 kts | 282° |
| 2026-04-23 01:36 | 40.73307 | -112.54979 | 8514 ft | 157 kts | 282° |
| 2026-04-23 01:36 | 40.73527 | -112.56390 | 8514 ft | 157 kts | 282° |
| 2026-04-23 01:36 | 40.73745 | -112.57796 | 8513 ft | 157 kts | 282° |
| 2026-04-23 01:36 | 40.73966 | -112.59202 | 8514 ft | 157 kts | 282° |
| 2026-04-23 01:37 | 40.74187 | -112.60609 | 8516 ft | 157 kts | 282° |
| 2026-04-23 01:37 | 40.74405 | -112.62017 | 8516 ft | 157 kts | 282° |
| 2026-04-23 01:37 | 40.74622 | -112.63405 | 8511 ft | 157 kts | 282° |
| 2026-04-23 01:37 | 40.74840 | -112.64812 | 8513 ft | 157 kts | 282° |
| 2026-04-23 01:38 | 40.75057 | -112.66217 | 8515 ft | 157 kts | 282° |
| 2026-04-23 01:38 | 40.75276 | -112.67624 | 8516 ft | 157 kts | 282° |
| 2026-04-23 01:38 | 40.75495 | -112.69036 | 8510 ft | 157 kts | 282° |
| 2026-04-23 01:38 | 40.75713 | -112.70446 | 8510 ft | 156 kts | 282° |
| 2026-04-23 01:39 | 40.75931 | -112.71853 | 8510 ft | 157 kts | 282° |
| 2026-04-23 01:39 | 40.76149 | -112.73263 | 8510 ft | 157 kts | 282° |
| 2026-04-23 01:39 | 40.76368 | -112.74677 | 8507 ft | 157 kts | 282° |
| 2026-04-23 01:39 | 40.76584 | -112.76084 | 8507 ft | 156 kts | 282° |
| 2026-04-23 01:40 | 40.76801 | -112.77487 | 8505 ft | 155 kts | 282° |
| 2026-04-23 01:40 | 40.77013 | -112.78865 | 8506 ft | 155 kts | 282° |
| 2026-04-23 01:40 | 40.77227 | -112.80259 | 8503 ft | 155 kts | 282° |
| 2026-04-23 01:40 | 40.77444 | -112.81657 | 8509 ft | 156 kts | 282° |
| 2026-04-23 01:41 | 40.77660 | -112.83071 | 8513 ft | 158 kts | 282° |
| 2026-04-23 01:41 | 40.77879 | -112.84497 | 8515 ft | 159 kts | 282° |
| 2026-04-23 01:41 | 40.78098 | -112.85931 | 8511 ft | 160 kts | 282° |
| 2026-04-23 01:41 | 40.78319 | -112.87368 | 8511 ft | 160 kts | 282° |
| 2026-04-23 01:42 | 40.78540 | -112.88804 | 8511 ft | 159 kts | 282° |
| 2026-04-23 01:42 | 40.78756 | -112.90228 | 8512 ft | 160 kts | 282° |
| 2026-04-23 01:42 | 40.78856 | -112.91696 | 8501 ft | 164 kts | 267° |
| 2026-04-23 01:42 | 40.78729 | -112.93201 | 8509 ft | 167 kts | 268° |
| 2026-04-23 01:43 | 40.78630 | -112.94729 | 8514 ft | 167 kts | 267° |
| 2026-04-23 01:43 | 40.78525 | -112.96249 | 8515 ft | 165 kts | 267° |
| 2026-04-23 01:43 | 40.78419 | -112.97745 | 8513 ft | 163 kts | 267° |
| 2026-04-23 01:43 | 40.78315 | -112.99201 | 8514 ft | 160 kts | 267° |
| 2026-04-23 01:44 | 40.78210 | -113.00664 | 8514 ft | 159 kts | 266° |
| 2026-04-23 01:44 | 40.78105 | -113.02128 | 8514 ft | 161 kts | 267° |
| 2026-04-23 01:44 | 40.78000 | -113.03605 | 8511 ft | 162 kts | 266° |
| 2026-04-23 01:44 | 40.77895 | -113.05092 | 8517 ft | 163 kts | 267° |
| 2026-04-23 01:45 | 40.77795 | -113.06581 | 8516 ft | 162 kts | 267° |
| 2026-04-23 01:45 | 40.77693 | -113.08063 | 8516 ft | 162 kts | 267° |
| 2026-04-23 01:45 | 40.77587 | -113.09546 | 8510 ft | 162 kts | 267° |
| 2026-04-23 01:45 | 40.77481 | -113.11027 | 8512 ft | 162 kts | 267° |
| 2026-04-23 01:46 | 40.77376 | -113.12508 | 8513 ft | 162 kts | 267° |
| 2026-04-23 01:46 | 40.77268 | -113.13988 | 8511 ft | 162 kts | 267° |
| 2026-04-23 01:46 | 40.77159 | -113.15465 | 8512 ft | 161 kts | 267° |
| 2026-04-23 01:46 | 40.77053 | -113.16940 | 8516 ft | 161 kts | 267° |
| 2026-04-23 01:47 | 40.76946 | -113.18395 | 8517 ft | 161 kts | 267° |
| 2026-04-23 01:47 | 40.76838 | -113.19866 | 8517 ft | 161 kts | 267° |
| 2026-04-23 01:47 | 40.76731 | -113.21333 | 8511 ft | 161 kts | 267° |
| 2026-04-23 01:47 | 40.76625 | -113.22804 | 8513 ft | 161 kts | 267° |
| 2026-04-23 01:48 | 40.76516 | -113.24276 | 8515 ft | 162 kts | 266° |
| 2026-04-23 01:48 | 40.76405 | -113.25752 | 8516 ft | 162 kts | 266° |
| 2026-04-23 01:48 | 40.76296 | -113.27228 | 8509 ft | 162 kts | 267° |
| 2026-04-23 01:48 | 40.76190 | -113.28706 | 8513 ft | 163 kts | 267° |
| 2026-04-23 01:49 | 40.76082 | -113.30191 | 8516 ft | 163 kts | 267° |
| 2026-04-23 01:49 | 40.75969 | -113.31673 | 8516 ft | 162 kts | 267° |
| 2026-04-23 01:49 | 40.75859 | -113.33145 | 8509 ft | 161 kts | 267° |
| 2026-04-23 01:49 | 40.75750 | -113.34611 | 8513 ft | 160 kts | 267° |
| 2026-04-23 01:50 | 40.75642 | -113.36074 | 8514 ft | 160 kts | 267° |
| 2026-04-23 01:50 | 40.75533 | -113.37537 | 8514 ft | 160 kts | 267° |
| 2026-04-23 01:50 | 40.75425 | -113.39006 | 8514 ft | 161 kts | 267° |
| 2026-04-23 01:50 | 40.75316 | -113.40470 | 8523 ft | 160 kts | 267° |
| 2026-04-23 01:51 | 40.75204 | -113.41928 | 8523 ft | 160 kts | 267° |
| 2026-04-23 01:51 | 40.75094 | -113.43390 | 8523 ft | 160 kts | 267° |
| 2026-04-23 01:51 | 40.74984 | -113.44858 | 8517 ft | 161 kts | 267° |
| 2026-04-23 01:51 | 40.74873 | -113.46330 | 8520 ft | 161 kts | 267° |
| 2026-04-23 01:52 | 40.74763 | -113.47805 | 8519 ft | 161 kts | 267° |
| 2026-04-23 01:52 | 40.74652 | -113.49273 | 8518 ft | 160 kts | 267° |
| 2026-04-23 01:52 | 40.74540 | -113.50736 | 8518 ft | 161 kts | 267° |
| 2026-04-23 01:52 | 40.74428 | -113.52206 | 8519 ft | 161 kts | 267° |
| 2026-04-23 01:53 | 40.74320 | -113.53660 | 8518 ft | 161 kts | 267° |
| 2026-04-23 01:53 | 40.74206 | -113.55135 | 8518 ft | 161 kts | 267° |
| 2026-04-23 01:53 | 40.74098 | -113.56560 | 8519 ft | 161 kts | 267° |
| 2026-04-23 01:53 | 40.73986 | -113.58031 | 8520 ft | 161 kts | 267° |
| 2026-04-23 01:54 | 40.73891 | -113.59505 | 8520 ft | 162 kts | 268° |
| 2026-04-23 01:54 | 40.73799 | -113.60984 | 8520 ft | 162 kts | 268° |
| 2026-04-23 01:54 | 40.73704 | -113.62460 | 8498 ft | 162 kts | 268° |
| 2026-04-23 01:54 | 40.73611 | -113.63931 | 8377 ft | 160 kts | 268° |
| 2026-04-23 01:55 | 40.73513 | -113.65386 | 8240 ft | 159 kts | 268° |
| 2026-04-23 01:55 | 40.73418 | -113.66836 | 8102 ft | 159 kts | 268° |
| 2026-04-23 01:55 | 40.73322 | -113.68282 | 7970 ft | 158 kts | 268° |
| 2026-04-23 01:55 | 40.73229 | -113.69730 | 7831 ft | 158 kts | 268° |
| 2026-04-23 01:56 | 40.73134 | -113.71179 | 7693 ft | 159 kts | 268° |
| 2026-04-23 01:56 | 40.73039 | -113.72623 | 7553 ft | 158 kts | 268° |
| 2026-04-23 01:56 | 40.72942 | -113.74068 | 7413 ft | 158 kts | 268° |
| 2026-04-23 01:56 | 40.72847 | -113.75513 | 7272 ft | 158 kts | 268° |
| 2026-04-23 01:57 | 40.72751 | -113.76961 | 7130 ft | 159 kts | 268° |
| 2026-04-23 01:57 | 40.72655 | -113.78413 | 6963 ft | 159 kts | 268° |
| 2026-04-23 01:57 | 40.72559 | -113.79854 | 6818 ft | 160 kts | 268° |
| 2026-04-23 01:57 | 40.72461 | -113.81310 | 6676 ft | 159 kts | 268° |
| 2026-04-23 01:58 | 40.72364 | -113.82763 | 6536 ft | 159 kts | 268° |
| 2026-04-23 01:58 | 40.72265 | -113.84218 | 6394 ft | 159 kts | 268° |
| 2026-04-23 01:58 | 40.72169 | -113.85672 | 6255 ft | 160 kts | 267° |
| 2026-04-23 01:58 | 40.72071 | -113.87129 | 6108 ft | 159 kts | 267° |
| 2026-04-23 01:59 | 40.71974 | -113.88578 | 5974 ft | 158 kts | 267° |
| 2026-04-23 01:59 | 40.71891 | -113.90022 | 5875 ft | 157 kts | 270° |
| 2026-04-23 01:59 | 40.71906 | -113.91453 | 5684 ft | 157 kts | 271° |
| 2026-04-23 01:59 | 40.71926 | -113.92904 | 5447 ft | 160 kts | 270° |
| 2026-04-23 02:00 | 40.71920 | -113.94395 | 5191 ft | 165 kts | 269° |
| 2026-04-23 02:00 | 40.71918 | -113.95877 | 5028 ft | 153 kts | 270° |
| 2026-04-23 02:00 | 40.71911 | -113.97126 | 4936 ft | 129 kts | 268° |
| 2026-04-23 02:00 | 40.71902 | -113.97913 | 4753 ft | 131 kts | 268° |
| 2026-04-23 02:01 | 40.71894 | -113.99104 | 4540 ft | 129 kts | 268° |
| 2026-04-23 02:01 | 40.71895 | -114.00277 | 4361 ft | 126 kts | 269° |
| 2026-04-23 02:01 | 40.71893 | -114.01336 | 4255 ft | 103 kts | 269° |
| 2026-04-23 02:01 | 40.71888 | -114.02181 | 4233 ft | 82 kts | 269° |
| 2026-04-23 02:02 | 40.71888 | -114.02863 | 4229 ft | 66 kts | 271° |
| 2026-04-23 02:02 | 40.71901 | -114.03215 | 4228 ft | 9 kts | 300° |
| 2026-04-23 02:02 | 40.71958 | -114.03243 | 4229 ft | 9 kts | 326° |
| 2026-04-23 02:02 | 40.72010 | -114.03304 | 4230 ft | 12 kts | 315° |
| 2026-04-23 02:03 | 40.72097 | -114.03421 | 4230 ft | 23 kts | 317° |
| 2026-04-23 02:03 | 40.72235 | -114.03595 | 4230 ft | 29 kts | 315° |
| 2026-04-23 02:03 | 40.72374 | -114.03778 | 4229 ft | 27 kts | 315° |
| 2026-04-23 02:03 | 40.72506 | -114.03952 | 4227 ft | 26 kts | 315° |
| 2026-04-23 02:04 | 40.72618 | -114.04066 | 4227 ft | 14 kts | 353° |
| 2026-04-23 02:04 | 40.72717 | -114.04068 | 4227 ft | 15 kts | 355° |
| 2026-04-23 02:04 | 40.72779 | -114.04054 | 4227 ft | 6 kts | 31° |
| 2026-04-23 02:04 | 40.72784 | -114.04050 | 4227 ft | 0 kts | 32° |